Time;durP1;ratioP1;P1;durP2;ratioP2;P2;SDS_P1;SDS_P2;PMS_P1;PMS_P2;Temp;Humidity;BMP_temperature;BMP_pressure;BME280_temperature;BME280_humidity;BME280_pressure;Samples;Min_cycle;Max_cycle;Signal;HPM_P1;HPM_P2
2022/10/14 00:00:13;;;;;;;9.80;8.80;;;;;;;13.16;100.00;154739.28;5031967;28;20494;-76
2022/10/14 00:02:41;;;;;;;10.57;9.30;;;;;;;13.12;100.00;154730.22;5023573;28;20457;-76
2022/10/14 00:05:09;;;;;;;11.33;9.50;;;;;;;13.14;100.00;154734.09;5025872;28;20451;-76
2022/10/14 00:07:36;;;;;;;12.87;10.37;;;;;;;13.13;100.00;154732.78;5016352;28;20463;-76
2022/10/14 00:10:03;;;;;;;10.50;8.90;;;;;;;13.11;100.00;154727.63;5020990;28;20563;-76
2022/10/14 00:12:30;;;;;;;10.57;8.83;;;;;;;13.12;100.00;154730.22;5026426;28;20552;-76
2022/10/14 00:14:57;;;;;;;9.67;8.63;;;;;;;13.12;100.00;154728.94;5007788;28;20486;-76
2022/10/14 00:17:23;;;;;;;9.80;8.90;;;;;;;13.11;100.00;154727.63;5009938;28;20462;-76
2022/10/14 00:19:52;;;;;;;12.17;10.00;;;;;;;13.11;100.00;154726.31;5011274;28;20421;-76
2022/10/14 00:22:20;;;;;;;11.73;9.20;;;;;;;13.10;100.00;154723.75;5022066;28;20725;-76
2022/10/14 00:24:47;;;;;;;10.63;9.57;;;;;;;13.09;100.00;154721.13;5013307;28;20441;-76
2022/10/14 00:27:13;;;;;;;10.27;9.17;;;;;;;13.08;100.00;154718.56;5026175;28;20450;-76
2022/10/14 00:29:40;;;;;;;10.03;9.00;;;;;;;13.06;100.00;154714.59;5029560;28;20483;-76
2022/10/14 00:32:07;;;;;;;9.93;8.90;;;;;;;13.06;100.00;154713.28;5030326;28;20482;-76
2022/10/14 00:34:34;;;;;;;11.03;9.93;;;;;;;13.06;100.00;154714.59;5029853;28;20534;-76
2022/10/14 00:37:01;;;;;;;10.00;8.93;;;;;;;13.07;100.00;154717.25;5012857;28;20447;-76
2022/10/14 00:39:30;;;;;;;9.30;8.40;;;;;;;13.05;100.00;154712.00;5012305;28;20502;-76
2022/10/14 00:41:57;;;;;;;10.50;9.50;;;;;;;13.06;100.00;154713.28;5021546;28;20551;-76
2022/10/14 00:45:03;;;;;;;9.20;8.30;;;;;;;13.07;100.00;154717.25;5025931;28;20523;-76
2022/10/14 00:47:30;;;;;;;9.23;8.23;;;;;;;13.07;100.00;154715.97;5030068;28;20547;-76
2022/10/14 00:49:59;;;;;;;10.60;9.10;;;;;;;13.07;100.00;154717.25;5029160;28;20522;-76
2022/10/14 00:52:29;;;;;;;16.53;9.40;;;;;;;13.09;100.00;154721.13;5029413;28;20468;-76
2022/10/14 00:55:00;;;;;;;10.23;9.20;;;;;;;13.06;100.00;154713.28;5012336;28;20954;-76
2022/10/14 00:57:30;;;;;;;10.70;9.60;;;;;;;13.03;100.00;154706.81;5026173;28;20440;-76
2022/10/14 01:00:01;;;;;;;19.67;9.70;;;;;;;13.03;100.00;154705.50;5019173;28;20455;-76
2022/10/14 01:02:29;;;;;;;9.60;8.70;;;;;;;13.03;100.00;154705.50;5028743;28;20510;-76
2022/10/14 01:04:56;;;;;;;9.53;7.50;;;;;;;13.02;100.00;154704.25;5024356;28;20441;-76
2022/10/14 01:07:36;;;;;;;9.40;8.37;;;;;;;13.02;100.00;154704.25;5013241;28;20447;-76
2022/10/14 01:10:09;;;;;;;9.57;8.67;;;;;;;13.06;100.00;154713.28;5030736;28;20420;-76
2022/10/14 01:12:46;;;;;;;9.43;7.90;;;;;;;13.06;100.00;154713.28;5027106;28;20461;-76
2022/10/14 01:15:17;;;;;;;9.93;8.97;;;;;;;13.04;100.00;154709.44;5028609;28;20521;-76
2022/10/14 01:17:53;;;;;;;11.47;8.40;;;;;;;13.03;100.00;154705.50;5019685;28;20822;-76
2022/10/14 01:20:35;;;;;;;13.00;7.83;;;;;;;13.03;100.00;154706.81;5016920;28;20458;-76
2022/10/14 01:23:13;;;;;;;8.50;7.70;;;;;;;13.00;100.00;154699.03;5032942;28;20883;-76
2022/10/14 01:25:51;;;;;;;9.10;8.20;;;;;;;13.01;100.00;154700.31;5013475;28;20890;-76
2022/10/14 01:28:24;;;;;;;11.40;8.90;;;;;;;13.01;100.00;154701.63;5016801;28;20964;-76
2022/10/14 01:30:56;;;;;;;10.30;8.50;;;;;;;13.01;100.00;154700.31;5030928;28;20424;-76
2022/10/14 01:33:25;;;;;;;9.63;8.47;;;;;;;13.03;100.00;154706.81;5005284;28;20567;-76
2022/10/14 01:36:02;;;;;;;8.87;7.90;;;;;;;13.01;100.00;154700.31;5032498;28;20459;-76
2022/10/14 01:38:32;;;;;;;10.97;8.70;;;;;;;12.98;100.00;154693.84;5033383;28;20805;-76
2022/10/14 01:41:04;;;;;;;12.70;8.20;;;;;;;12.98;100.00;154693.84;5016682;28;20487;-76
2022/10/14 01:43:32;;;;;;;10.23;8.10;;;;;;;13.00;100.00;154699.03;5030466;28;20570;-76
2022/10/14 01:46:02;;;;;;;8.80;7.60;;;;;;;13.01;100.00;154701.63;5031967;28;21014;-76
2022/10/14 01:48:31;;;;;;;11.43;8.23;;;;;;;13.00;100.00;154699.03;5034115;28;20444;-76
2022/10/14 01:51:00;;;;;;;9.80;8.47;;;;;;;13.01;100.00;154701.63;5013772;28;20446;-76
2022/10/14 01:53:30;;;;;;;9.53;8.53;;;;;;;13.00;100.00;154699.03;5031272;28;20515;-76
2022/10/14 01:55:57;;;;;;;9.60;7.80;;;;;;;13.00;100.00;154699.03;5030919;28;20444;-76
2022/10/14 01:58:26;;;;;;;9.33;8.37;;;;;;;13.02;100.00;154704.25;5016025;28;20448;-76
2022/10/14 02:00:53;;;;;;;10.20;8.30;;;;;;;13.03;100.00;154706.81;5031037;28;20439;-76
2022/10/14 02:03:21;;;;;;;11.90;8.20;;;;;;;13.01;100.00;154701.63;5038979;28;20518;-76
2022/10/14 02:05:51;;;;;;;12.50;7.73;;;;;;;13.00;100.00;154699.03;5029880;28;20877;-76
2022/10/14 02:08:21;;;;;;;9.43;8.10;;;;;;;13.01;100.00;154701.63;5030611;28;20673;-76
2022/10/14 02:11:05;;;;;;;9.77;8.70;;;;;;;12.98;100.00;154693.84;5011210;28;20546;-76
2022/10/14 02:13:51;;;;;;;8.67;7.77;;;;;;;13.02;100.00;154704.25;5022398;28;20486;-76
2022/10/14 02:16:24;;;;;;;8.60;7.57;;;;;;;13.02;100.00;154704.25;5011887;28;20436;-76
2022/10/14 02:18:58;;;;;;;9.73;7.43;;;;;;;12.99;100.00;154696.47;5012449;28;20519;-76
2022/10/14 02:21:30;;;;;;;9.00;8.10;;;;;;;13.01;100.00;154701.63;5017482;28;20479;-76
2022/10/14 02:24:05;;;;;;;11.97;7.77;;;;;;;12.98;100.00;154692.53;5004747;28;20452;-76
2022/10/14 02:26:33;;;;;;;11.47;8.10;;;;;;;12.99;100.00;154696.47;5012452;28;20447;-76
2022/10/14 02:29:02;;;;;;;9.50;8.07;;;;;;;13.02;100.00;154702.94;5023478;28;20914;-76
2022/10/14 02:31:31;;;;;;;9.90;8.47;;;;;;;13.03;100.00;154705.50;5038964;28;20439;-76
2022/10/14 02:34:01;;;;;;;11.83;8.03;;;;;;;13.00;100.00;154699.03;5053071;28;20860;-76
2022/10/14 02:36:29;;;;;;;9.90;8.80;;;;;;;13.00;100.00;154699.03;5034822;28;20431;-76
2022/10/14 02:38:58;;;;;;;8.90;7.77;;;;;;;12.99;100.00;154696.47;5033968;28;20470;-76
2022/10/14 02:41:28;;;;;;;8.90;8.00;;;;;;;13.01;100.00;154700.31;5031175;28;20850;-76
2022/10/14 02:43:54;;;;;;;9.50;7.07;;;;;;;13.00;100.00;154699.03;5032759;28;20518;-76
2022/10/14 02:46:22;;;;;;;10.43;8.20;;;;;;;12.98;100.00;154693.84;5020771;28;20448;-76
2022/10/14 02:48:48;;;;;;;9.90;8.33;;;;;;;13.00;100.00;154697.75;5030392;28;20440;-76
2022/10/14 02:51:16;;;;;;;8.87;7.50;;;;;;;13.00;100.00;154699.03;5031290;28;20438;-76
2022/10/14 02:53:43;;;;;;;9.13;8.00;;;;;;;12.97;100.00;154691.28;5032769;28;20475;-76
2022/10/14 02:56:12;;;;;;;11.57;8.60;;;;;;;12.95;100.00;154684.75;5029747;28;20456;-76
2022/10/14 02:58:38;;;;;;;12.77;8.90;;;;;;;12.96;100.00;154688.66;5030991;28;20475;-76
2022/10/14 03:01:05;;;;;;;8.97;8.07;;;;;;;12.94;100.00;154683.50;5029607;28;20455;-76
2022/10/14 03:03:33;;;;;;;12.23;9.50;;;;;;;12.88;100.00;154667.91;5007137;28;20852;-76
2022/10/14 03:06:00;;;;;;;11.37;8.87;;;;;;;12.85;100.00;154660.13;5010757;28;20462;-76
2022/10/14 03:08:29;;;;;;;9.60;8.53;;;;;;;12.85;100.00;154660.13;5014097;28;20459;-76
2022/10/14 03:10:57;;;;;;;11.27;8.50;;;;;;;12.84;100.00;154658.81;5013784;28;20436;-76
2022/10/14 03:13:25;;;;;;;11.10;7.70;;;;;;;12.81;100.00;154651.03;5012090;28;20479;-76
2022/10/14 03:15:52;;;;;;;11.60;8.70;;;;;;;12.78;100.00;154643.28;5030831;28;20519;-76
2022/10/14 03:18:20;;;;;;;10.30;7.70;;;;;;;12.77;100.00;154640.66;5029834;28;20467;-76
2022/10/14 03:20:48;;;;;;;10.40;8.10;;;;;;;12.74;100.00;154631.56;5026500;28;20546;-76
2022/10/14 03:23:19;;;;;;;12.90;9.20;;;;;;;12.73;100.00;154630.28;5013379;28;20566;-76
2022/10/14 03:25:51;;;;;;;12.30;8.97;;;;;;;12.73;100.00;154630.28;5014088;28;20574;-76
2022/10/14 03:28:33;;;;;;;12.90;8.60;;;;;;;12.73;100.00;154629.00;5030662;28;20455;-76
2022/10/14 03:31:09;;;;;;;11.73;9.30;;;;;;;12.75;100.00;154635.50;5017698;28;20470;-76
2022/10/14 03:34:02;;;;;;;9.93;9.03;;;;;;;12.75;100.00;154634.19;5030462;28;20495;-76
2022/10/14 03:36:30;;;;;;;11.90;8.87;;;;;;;12.75;100.00;154634.19;5013532;28;20866;-76
2022/10/14 03:38:57;;;;;;;11.53;9.37;;;;;;;12.76;100.00;154636.81;5005567;28;20502;-76
2022/10/14 03:41:38;;;;;;;11.13;9.87;;;;;;;12.75;100.00;154635.50;5007379;28;20459;-76
2022/10/14 03:44:07;;;;;;;10.60;9.30;;;;;;;12.73;100.00;154629.00;5011752;28;21056;-77
2022/10/14 03:46:36;;;;;;;10.80;8.93;;;;;;;12.74;100.00;154631.56;5030160;28;20436;-76
2022/10/14 03:49:03;;;;;;;11.17;9.77;;;;;;;12.74;100.00;154631.56;5029627;28;20998;-76
2022/10/14 03:51:32;;;;;;;12.07;10.30;;;;;;;12.70;100.00;154621.22;5029965;28;20452;-76
2022/10/14 03:54:10;;;;;;;19.43;10.60;;;;;;;12.68;100.00;154617.31;5027781;28;20925;-76
2022/10/14 03:56:38;;;;;;;14.57;10.40;;;;;;;12.66;100.00;154612.13;5027527;28;20456;-76
2022/10/14 03:59:05;;;;;;;11.20;10.07;;;;;;;12.67;100.00;154613.44;5012702;28;20452;-75
2022/10/14 04:01:32;;;;;;;13.23;10.43;;;;;;;12.66;100.00;154610.81;5014229;28;21089;-76
2022/10/14 04:04:13;;;;;;;11.33;10.03;;;;;;;12.64;100.00;154606.94;5007371;28;20457;-75
2022/10/14 04:06:40;;;;;;;11.57;9.83;;;;;;;12.65;100.00;154608.25;5011026;28;20527;-76
2022/10/14 04:09:08;;;;;;;12.73;10.33;;;;;;;12.63;100.00;154603.03;5006014;28;20502;-75
2022/10/14 04:11:40;;;;;;;11.90;10.60;;;;;;;12.62;100.00;154601.78;5026968;28;20452;-75
2022/10/14 04:14:10;;;;;;;12.80;11.20;;;;;;;12.61;100.00;154597.84;5010983;28;20475;-76
2022/10/14 04:16:46;;;;;;;16.97;10.70;;;;;;;12.61;100.00;154597.84;5011721;28;20466;-75
2022/10/14 04:19:12;;;;;;;13.23;10.60;;;;;;;12.60;100.00;154596.56;5013687;28;20462;-75
2022/10/14 04:21:41;;;;;;;16.07;12.83;;;;;;;12.62;100.00;154600.47;5013233;28;20456;-75
2022/10/14 04:24:09;;;;;;;14.57;11.30;;;;;;;12.59;100.00;154594.00;5012958;28;20860;-75
2022/10/14 04:26:43;;;;;;;17.53;13.13;;;;;;;12.59;100.00;154592.69;5012047;28;20476;-75
2022/10/14 04:29:20;;;;;;;12.00;10.27;;;;;;;12.61;100.00;154597.84;4994857;28;20447;-76
2022/10/14 04:31:54;;;;;;;14.23;10.20;;;;;;;12.59;100.00;154592.69;5045536;28;20518;-76
2022/10/14 04:34:21;;;;;;;13.63;10.87;;;;;;;12.73;100.00;154629.00;5009417;28;20484;-76
2022/10/14 04:36:49;;;;;;;13.70;11.33;;;;;;;12.61;100.00;154597.84;5013419;28;20468;-76
2022/10/14 04:39:25;;;;;;;15.03;11.80;;;;;;;12.61;100.00;154597.84;5029605;28;20444;-76
2022/10/14 04:41:54;;;;;;;12.37;10.63;;;;;;;12.57;100.00;154587.50;5029918;28;20554;-76
2022/10/14 04:44:22;;;;;;;16.50;11.17;;;;;;;12.55;100.00;154583.59;5028493;28;20547;-76
2022/10/14 04:46:52;;;;;;;15.70;12.33;;;;;;;12.58;100.00;154590.06;5010038;28;20448;-76
2022/10/14 04:49:22;;;;;;;13.10;11.70;;;;;;;12.61;100.00;154599.16;5030284;28;20452;-76
2022/10/14 04:51:57;;;;;;;14.50;11.80;;;;;;;12.62;100.00;154600.47;5008150;28;20456;-76
2022/10/14 04:54:47;;;;;;;13.90;11.40;;;;;;;12.58;100.00;154590.06;5030678;28;20427;-76
2022/10/14 04:57:15;;;;;;;14.27;10.97;;;;;;;12.56;100.00;154584.91;5017717;28;20440;-76
2022/10/14 04:59:46;;;;;;;14.30;12.07;;;;;;;12.53;100.00;154577.09;5016481;28;20487;-76
2022/10/14 05:02:42;;;;;;;14.60;12.43;;;;;;;12.53;100.00;154577.09;5029286;28;20455;-76
2022/10/14 05:05:09;;;;;;;14.27;12.03;;;;;;;12.55;100.00;154582.34;5022690;28;21024;-76
2022/10/14 05:07:38;;;;;;;12.47;11.17;;;;;;;12.52;100.00;154575.78;5003451;28;20451;-76
2022/10/14 05:10:20;;;;;;;13.80;12.30;;;;;;;12.53;100.00;154577.09;5002850;28;20821;-76
2022/10/14 05:12:49;;;;;;;16.23;12.60;;;;;;;12.55;100.00;154582.34;5027219;28;20522;-76
2022/10/14 05:15:16;;;;;;;15.40;13.67;;;;;;;12.53;100.00;154577.09;5021070;28;20538;-76
2022/10/14 05:17:55;;;;;;;16.00;13.50;;;;;;;12.55;100.00;154582.34;5002310;28;20455;-76
2022/10/14 05:20:28;;;;;;;12.43;11.00;;;;;;;12.55;100.00;154583.59;5020579;28;20455;-76
2022/10/14 05:22:57;;;;;;;15.77;12.23;;;;;;;12.54;100.00;154579.72;5023025;28;20550;-76
2022/10/14 05:25:24;;;;;;;16.20;12.67;;;;;;;12.55;100.00;154583.59;5025564;28;20550;-76
2022/10/14 05:27:53;;;;;;;17.33;11.90;;;;;;;12.55;100.00;154582.34;5036465;28;20563;-76
2022/10/14 05:30:20;;;;;;;17.30;12.60;;;;;;;12.53;100.00;154578.41;5001564;28;20440;-76
2022/10/14 05:32:51;;;;;;;15.87;12.70;;;;;;;12.54;100.00;154581.03;5009985;28;20460;-76
2022/10/14 05:35:19;;;;;;;15.77;13.77;;;;;;;12.54;100.00;154581.03;5009846;28;20510;-76
2022/10/14 05:37:46;;;;;;;14.83;13.33;;;;;;;12.54;100.00;154579.72;5000849;28;20595;-76
2022/10/14 05:40:12;;;;;;;14.80;13.20;;;;;;;12.56;100.00;154584.91;5003222;28;20463;-76
2022/10/14 05:42:39;;;;;;;15.97;12.70;;;;;;;12.52;100.00;154575.78;5002756;28;20483;-75
2022/10/14 05:45:09;;;;;;;12.70;11.47;;;;;;;12.54;100.00;154579.72;5015578;28;20792;-75
2022/10/14 05:47:43;;;;;;;17.13;11.77;;;;;;;12.54;100.00;154579.72;5017077;28;20460;-76
2022/10/14 05:50:14;;;;;;;14.83;12.63;;;;;;;12.54;100.00;154579.72;5001923;28;20460;-76
2022/10/14 05:52:44;;;;;;;15.67;13.97;;;;;;;12.55;100.00;154582.34;5008134;28;20460;-75
2022/10/14 05:55:16;;;;;;;17.90;14.20;;;;;;;12.56;100.00;154586.19;4999977;28;20476;-76
2022/10/14 05:57:45;;;;;;;17.10;12.87;;;;;;;12.57;100.00;154588.81;5016340;28;20569;-75
2022/10/14 06:00:18;;;;;;;15.90;12.50;;;;;;;12.57;100.00;154587.50;5017400;28;20476;-74
2022/10/14 06:02:46;;;;;;;19.90;13.90;;;;;;;12.59;100.00;154592.69;5019711;28;20496;-75
2022/10/14 06:05:16;;;;;;;15.23;12.10;;;;;;;12.58;100.00;154591.38;5032613;28;20456;-76
2022/10/14 06:07:43;;;;;;;16.00;12.90;;;;;;;12.59;100.00;154592.69;5003429;28;20467;-76
2022/10/14 06:10:10;;;;;;;17.80;14.17;;;;;;;12.63;100.00;154604.34;5001900;28;20460;-76
2022/10/14 06:12:37;;;;;;;15.67;13.40;;;;;;;12.69;100.00;154618.63;5000932;28;20895;-74
2022/10/14 06:15:05;;;;;;;18.00;13.97;;;;;;;12.65;100.00;154608.25;5021612;28;20563;-76
2022/10/14 06:17:33;;;;;;;13.93;12.43;;;;;;;12.63;100.00;154603.03;5003838;28;20456;-76
2022/10/14 06:20:00;;;;;;;17.57;13.10;;;;;;;12.70;100.00;154621.22;5002354;28;20799;-76
2022/10/14 06:22:27;;;;;;;16.70;13.00;;;;;;;12.62;100.00;154600.47;5020249;28;20484;-76
2022/10/14 06:24:54;;;;;;;14.07;12.40;;;;;;;12.59;100.00;154592.69;5036544;28;20452;-76
2022/10/14 06:27:21;;;;;;;16.50;13.40;;;;;;;12.59;100.00;154592.69;5020974;28;20507;-76
2022/10/14 06:29:48;;;;;;;16.10;12.87;;;;;;;12.59;100.00;154594.00;5019932;28;20994;-76
2022/10/14 06:32:14;;;;;;;16.60;11.60;;;;;;;12.61;100.00;154597.84;5021062;28;21032;-76
2022/10/14 06:34:42;;;;;;;18.43;13.13;;;;;;;12.66;100.00;154610.81;5021245;28;20488;-76
2022/10/14 06:37:09;;;;;;;17.03;13.63;;;;;;;12.67;100.00;154613.44;5020266;28;20448;-76
2022/10/14 06:39:36;;;;;;;17.43;13.80;;;;;;;12.64;100.00;154606.94;5021146;28;20459;-75
2022/10/14 06:42:03;;;;;;;15.10;12.70;;;;;;;12.68;100.00;154616.03;5021705;28;20918;-76
2022/10/14 06:44:29;;;;;;;17.00;12.57;;;;;;;12.69;100.00;154619.91;5020511;28;20482;-75
2022/10/14 06:46:56;;;;;;;14.63;12.73;;;;;;;12.72;100.00;154626.41;5019819;28;20998;-75
2022/10/14 06:49:23;;;;;;;15.10;12.27;;;;;;;12.74;100.00;154631.56;5018305;28;20532;-75
2022/10/14 06:51:51;;;;;;;17.43;12.80;;;;;;;12.77;100.00;154640.66;5018442;28;20454;-75
2022/10/14 06:54:18;;;;;;;14.83;13.10;;;;;;;12.75;100.00;154634.19;5024574;28;20709;-75
2022/10/14 06:56:44;;;;;;;14.57;13.03;;;;;;;12.74;100.00;154632.88;5021196;28;20462;-75
2022/10/14 06:59:11;;;;;;;14.50;13.00;;;;;;;12.76;100.00;154636.81;5018029;28;20950;-76
2022/10/14 07:01:38;;;;;;;15.07;11.17;;;;;;;12.83;100.00;154656.25;5021967;28;20951;-76
2022/10/14 07:04:05;;;;;;;16.63;12.30;;;;;;;12.89;100.00;154670.53;5019379;28;20462;-76
2022/10/14 07:06:32;;;;;;;15.07;11.70;;;;;;;12.86;100.00;154661.44;5018623;28;20789;-76
2022/10/14 07:09:02;;;;;;;14.90;12.10;;;;;;;12.89;100.00;154670.53;5033286;28;20455;-76
2022/10/14 07:11:29;;;;;;;14.00;11.23;;;;;;;12.92;100.00;154678.25;5017597;28;20547;-76
2022/10/14 07:13:56;;;;;;;16.07;11.90;;;;;;;12.95;100.00;154684.75;5017409;28;20521;-76
2022/10/14 07:16:23;;;;;;;13.43;11.60;;;;;;;12.95;100.00;154686.06;5020925;28;20458;-76
2022/10/14 07:18:50;;;;;;;13.07;11.50;;;;;;;12.96;100.00;154688.66;5017104;28;20460;-74
2022/10/14 07:21:17;;;;;;;14.30;11.57;;;;;;;12.96;100.00;154687.34;5017675;28;20550;-74
2022/10/14 07:23:43;;;;;;;16.53;12.03;;;;;;;13.01;100.00;154701.63;5019005;28;20537;-75
2022/10/14 07:26:12;;;;;;;13.37;10.47;;;;;;;12.99;100.00;154696.47;5037136;28;20536;-74
2022/10/14 07:28:39;;;;;;;15.10;11.13;;;;;;;13.03;100.00;154706.81;5033813;28;22064;-75
2022/10/14 07:31:08;;;;;;;15.40;11.77;;;;;;;13.01;100.00;154701.63;5035665;28;20448;-74
2022/10/14 07:33:35;;;;;;;13.70;10.43;;;;;;;13.05;100.00;154712.00;5018286;28;20508;-74
2022/10/14 07:36:02;;;;;;;16.00;11.83;;;;;;;13.08;100.00;154719.81;5018795;28;20506;-76
2022/10/14 07:38:29;;;;;;;15.10;13.43;;;;;;;13.12;100.00;154728.94;5017195;28;20538;-74
2022/10/14 07:40:58;;;;;;;15.27;11.77;;;;;;;13.22;100.00;154754.88;5024830;28;20450;-74
2022/10/14 07:43:27;;;;;;;14.80;11.23;;;;;;;13.28;100.00;154770.44;5019800;28;20487;-75
2022/10/14 07:45:59;;;;;;;14.47;12.53;;;;;;;13.32;100.00;154782.13;5034345;28;20459;-74
2022/10/14 07:48:26;;;;;;;20.83;12.53;;;;;;;13.40;100.00;154802.88;5019749;28;20459;-74
2022/10/14 07:50:53;;;;;;;14.80;12.03;;;;;;;13.45;100.00;154813.28;5018958;28;20448;-74
2022/10/14 07:53:20;;;;;;;16.07;11.83;;;;;;;13.48;100.00;154821.03;5018499;28;20499;-74
2022/10/14 07:55:50;;;;;;;13.53;12.13;;;;;;;13.52;100.00;154831.44;5018190;28;20448;-76
2022/10/14 07:58:19;;;;;;;16.40;11.00;;;;;;;13.53;100.00;154834.06;5018195;28;20451;-74
2022/10/14 08:00:47;;;;;;;17.00;11.77;;;;;;;13.55;100.00;154840.53;5004146;28;20814;-74
2022/10/14 08:03:14;;;;;;;16.27;10.47;;;;;;;13.58;100.00;154847.03;5017251;28;20846;-74
2022/10/14 08:05:41;;;;;;;11.43;9.90;;;;;;;13.60;100.00;154853.50;5019423;28;20459;-74
2022/10/14 08:08:08;;;;;;;11.03;9.37;;;;;;;13.63;100.00;154860.00;5018547;28;20820;-74
2022/10/14 08:10:35;;;;;;;9.30;7.97;;;;;;;13.72;100.00;154884.63;5019266;28;20458;-76
2022/10/14 08:13:01;;;;;;;11.00;8.70;;;;;;;13.76;100.00;154893.75;5018935;28;20455;-76
2022/10/14 08:15:29;;;;;;;10.60;8.70;;;;;;;13.77;100.00;154896.31;5017195;28;20464;-75
2022/10/14 08:17:59;;;;;;;11.83;7.97;;;;;;;13.74;100.00;154888.56;5021878;28;21008;-75
2022/10/14 08:20:26;;;;;;;11.80;8.03;;;;;;;13.76;100.00;154893.75;5017446;28;20443;-75
2022/10/14 08:22:53;;;;;;;8.83;7.93;;;;;;;13.82;100.00;154910.59;5020878;28;20466;-75
2022/10/14 08:25:19;;;;;;;11.27;9.00;;;;;;;13.79;100.00;154901.53;5018134;28;20953;-75
2022/10/14 08:27:49;;;;;;;11.70;8.30;;;;;;;13.80;100.00;154905.41;5017381;28;20459;-75
2022/10/14 08:30:16;;;;;;;12.43;7.70;;;;;;;13.80;100.00;154904.09;5019167;28;20439;-75
2022/10/14 08:32:42;;;;;;;10.20;9.20;;;;;;;13.82;100.00;154909.34;5022549;28;20543;-76
2022/10/14 08:35:11;;;;;;;12.30;9.17;;;;;;;14.00;100.00;154956.06;5020281;28;20553;-75
2022/10/14 08:37:38;;;;;;;11.53;9.73;;;;;;;13.99;100.00;154954.75;5024474;28;20452;-75
2022/10/14 08:40:06;;;;;;;9.97;8.20;;;;;;;13.97;100.00;154949.56;5024679;28;20487;-76
2022/10/14 08:42:42;;;;;;;9.60;8.57;;;;;;;14.01;100.00;154958.63;5020237;28;20456;-76
2022/10/14 08:45:14;;;;;;;12.53;9.33;;;;;;;14.14;100.00;154991.13;5028739;28;20440;-76
2022/10/14 08:47:48;;;;;;;10.60;8.20;;;;;;;14.16;100.00;154996.31;5026038;28;20803;-75
2022/10/14 08:50:23;;;;;;;10.67;8.90;;;;;;;14.18;100.00;155002.78;5021107;28;20499;-76
2022/10/14 08:52:53;;;;;;;10.33;8.27;;;;;;;14.24;100.00;155018.38;5027890;28;20956;-76
2022/10/14 08:55:29;;;;;;;13.73;8.00;;;;;;;14.34;100.00;155044.41;5022034;28;20529;-75
2022/10/14 08:57:59;;;;;;;8.50;7.60;;;;;;;14.41;100.00;155062.56;5021048;28;20479;-76
2022/10/14 09:00:27;;;;;;;14.57;8.30;;;;;;;14.46;100.00;155075.53;5022376;28;20447;-75
2022/10/14 09:02:54;;;;;;;9.43;7.90;;;;;;;14.50;100.00;155085.97;5022969;28;20456;-76
2022/10/14 09:05:24;;;;;;;9.40;8.07;;;;;;;14.55;100.00;155098.94;5019252;28;20460;-76
2022/10/14 09:07:53;;;;;;;9.60;8.63;;;;;;;14.56;100.00;155101.50;5020490;28;20487;-76
2022/10/14 09:10:27;;;;;;;8.17;7.33;;;;;;;14.67;100.00;155128.78;5022338;28;20810;-76
2022/10/14 09:12:55;;;;;;;8.43;6.67;;;;;;;14.68;100.00;155130.09;5020870;28;20451;-76
2022/10/14 09:15:26;;;;;;;8.83;7.63;;;;;;;14.78;100.00;155156.06;5025578;28;20464;-76
2022/10/14 09:17:59;;;;;;;9.73;8.73;;;;;;;14.86;100.00;155178.16;5026940;28;20502;-76
2022/10/14 09:20:27;;;;;;;8.93;8.03;;;;;;;14.91;100.00;155189.84;5021599;28;20446;-75
2022/10/14 09:23:05;;;;;;;10.67;8.13;;;;;;;14.95;100.00;155201.56;5003807;28;20521;-76
2022/10/14 09:25:34;;;;;;;10.00;7.83;;;;;;;14.97;100.00;155206.75;5020318;28;20448;-76
2022/10/14 09:28:03;;;;;;;7.33;6.53;;;;;;;15.03;100.00;155222.34;5020661;28;20502;-76
2022/10/14 09:30:35;;;;;;;8.57;7.20;;;;;;;14.99;100.00;155211.94;5022303;28;20793;-76
2022/10/14 09:33:02;;;;;;;13.67;7.47;;;;;;;15.05;100.00;155226.22;5024940;28;20888;-76
2022/10/14 09:35:32;;;;;;;7.53;6.83;;;;;;;15.03;100.00;155222.34;5038132;28;20468;-76
2022/10/14 09:37:59;;;;;;;7.67;6.43;;;;;;;15.22;100.00;155270.44;5022477;28;20546;-76
2022/10/14 09:40:29;;;;;;;7.47;6.57;;;;;;;15.17;100.00;155257.41;5021305;28;20925;-76
2022/10/14 09:42:59;;;;;;;11.03;5.57;;;;;;;15.35;100.00;155304.22;5019715;28;20581;-76
2022/10/14 09:45:28;;;;;;;8.30;6.40;;;;;;;15.31;100.00;155293.78;5035955;28;20455;-75
2022/10/14 09:47:57;;;;;;;9.20;7.07;;;;;;;15.36;100.00;155306.78;5022711;28;20449;-76
2022/10/14 09:50:27;;;;;;;9.70;6.90;;;;;;;15.42;100.00;155322.41;5020784;28;20837;-76
2022/10/14 09:53:00;;;;;;;10.00;7.60;;;;;;;15.44;100.00;155327.59;5018950;28;20518;-75
2022/10/14 09:55:27;;;;;;;10.20;6.90;;;;;;;15.47;100.00;155335.44;5022163;28;20474;-76
2022/10/14 09:58:04;;;;;;;7.27;6.50;;;;;;;15.41;100.00;155318.53;5022909;28;20467;-76
2022/10/14 10:00:32;;;;;;;8.83;7.30;;;;;;;15.46;100.00;155331.56;5026625;28;20977;-76
2022/10/14 10:02:58;;;;;;;7.70;6.87;;;;;;;15.44;100.00;155327.59;5035305;28;20452;-76
2022/10/14 10:05:27;;;;;;;7.87;7.07;;;;;;;15.45;100.00;155330.19;5021077;28;20527;-76
2022/10/14 10:08:11;;;;;;;8.27;7.47;;;;;;;15.56;100.00;155358.84;5033409;28;21294;-76
2022/10/14 10:10:38;;;;;;;10.30;7.00;;;;;;;15.67;100.00;155386.16;5019119;28;20479;-76
2022/10/14 10:13:04;;;;;;;7.50;6.30;;;;;;;15.75;100.00;155408.22;5019898;28;20456;-76
2022/10/14 10:15:31;;;;;;;8.13;6.50;;;;;;;15.76;100.00;155410.84;5020270;28;20963;-76
2022/10/14 10:17:58;;;;;;;7.80;6.80;;;;;;;15.96;100.00;155461.56;5019110;28;20667;-76
2022/10/14 10:20:32;;;;;;;10.00;7.03;;;;;;;15.97;100.00;155462.81;5019936;28;20482;-76
2022/10/14 10:23:21;;;;;;;10.80;7.23;;;;;;;16.01;100.00;155473.25;5023576;28;20455;-76
2022/10/14 10:25:48;;;;;;;9.10;6.27;;;;;;;16.05;100.00;155483.63;5018747;28;20961;-76
2022/10/14 10:28:18;;;;;;;8.67;6.47;;;;;;;16.18;100.00;155517.44;5032998;28;20464;-76
2022/10/14 10:30:59;;;;;;;8.00;7.20;;;;;;;16.18;100.00;155517.44;5019004;28;20446;-76
2022/10/14 10:33:32;;;;;;;9.07;6.67;;;;;;;16.16;100.00;155512.25;5017810;28;20459;-76
2022/10/14 10:36:10;;;;;;;8.50;6.53;;;;;;;16.33;100.00;155556.47;5017993;28;20804;-76
2022/10/14 10:38:45;;;;;;;6.60;5.57;;;;;;;16.42;100.00;155579.88;5019195;28;20467;-76
2022/10/14 10:41:22;;;;;;;7.40;6.30;;;;;;;16.35;100.00;155561.66;5022060;28;20440;-76
2022/10/14 10:44:20;;;;;;;8.50;6.40;;;;;;;16.32;100.00;155555.16;5033752;28;20475;-76
2022/10/14 10:46:59;;;;;;;7.67;6.50;;;;;;;16.34;100.00;155559.06;5021680;28;20966;-76
2022/10/14 10:49:39;;;;;;;7.10;6.40;;;;;;;16.24;100.00;155533.06;5003136;28;20495;-76
2022/10/14 10:52:11;;;;;;;7.80;6.20;;;;;;;16.25;100.00;155535.66;5020719;28;20444;-76
2022/10/14 10:54:44;;;;;;;7.60;6.50;;;;;;;16.27;100.00;155540.84;5026369;28;20827;-76
2022/10/14 10:57:23;;;;;;;6.30;5.17;;;;;;;16.31;100.00;155552.56;5023134;28;20452;-76
2022/10/14 10:59:57;;;;;;;5.70;5.00;;;;;;;16.35;100.00;155561.66;5025818;28;20461;-76
2022/10/14 11:02:44;;;;;;;6.37;4.60;;;;;;;16.41;100.00;155577.28;5017935;28;20441;-76
2022/10/14 11:05:14;;;;;;;5.57;5.03;;;;;;;16.43;100.00;155583.78;5024431;28;20444;-76
2022/10/14 11:13:36;;;;;;;7.77;4.83;;;;;;;16.55;100.00;155613.72;5022852;28;20969;-77
2022/10/14 11:16:07;;;;;;;4.73;4.23;;;;;;;16.47;100.00;155591.59;5017691;28;20519;-77
2022/10/14 11:18:44;;;;;;;5.57;4.40;;;;;;;16.40;100.00;155575.97;5018234;28;20463;-75
2022/10/14 11:21:17;;;;;;;5.03;4.33;;;;;;;16.38;100.00;155569.47;5023018;28;20698;-77
2022/10/14 11:23:48;;;;;;;4.63;4.13;;;;;;;16.32;100.00;155555.16;5015299;28;20460;-74
2022/10/14 11:26:27;;;;;;;4.40;4.00;;;;;;;16.30;100.00;155548.66;5018062;28;20841;-75
2022/10/14 11:29:01;;;;;;;7.10;4.10;;;;;;;16.24;100.00;155534.34;5016595;28;20483;-75